White Sand, Mississippi
Current Conditions -  °F | °C
As of 1:58 AM on Sunday 21 Dec 2014 (Local Time) from KCBM Reporting Station
Clear Clear  
Wind Chill: 33°   Ceiling: Unl
Heat Index: 33°   Visibility: 10mi
Dew Point: 30°   Wind: 1mph
Humidity: 91%   Direction: 350°N
Pressure: 30.22"   Gusts: NA
Location:  33.6943°N, 88.3042°W
Report Text: KCBM 210758Z AUTO 35001KT 10SM CLR 00/M01 A3022 RMK AO2 SLP237 T00031010 $
Loading
Personal Weather Stations






























Interactive Weather Map New forecast layout! Learn more

10-Day Weather Forecast

Advertisements
Track Severe Weather on mobile